الصفحة الرئيسية
METAR-TAF:

METAR-TAF

مطار :

Yamagata, اليابان

دائرة عرض: 38-25N, خط طول: 140-22E, ارتفاع: 105 متر

مراقبة الطقس الحالي

تاريخ ووقت الإصدار 1ساعة و 5 دقيقة قبل الساعة 02:00UTC
ريح 8 عقدة من الشمال
درجة الحرارة 23°درجة مئوية
الرطوبة 83%
ضغط 1006 hPa
الرؤية 10 كم أو أكثر
غيوم قليلة على ارتفاع 1000 قدم
غيوم متفرقة على ارتفاع 3000 قدم
غيوم مفككة على ارتفاع 5000 قدم

METAR: RJSC 250200Z 35008KT 9999 FEW010 SCT030 BKN050 23/20 Q1006

زمن: 12:05 (03:05 UTC)


TAF: مفقودة

أرصاد الطقس والتوقعات من أكثر من 4000 مطار (تقارير الطقس للمطار METAR والتنبؤ بالطقس بالمطارTAF).

المحطات المتاحة هي النقط الصفراء والحمراء على الخريطة.

حرك المؤشر فوق النقطة لمعرفة اسم المحطة.

ثم انقر لمعرفة أرصاد وتوقعات الطقس.

لتغيير الخارطة: اضغط على الأزرار الخضراء مع رمز الصليب الأسود للتكبير. على الزر الأخضر مع شرطة للتصغير، أو على الأسهم الخضراء للخرائط المجاورة.


METAR-TAF: